Time;durP1;ratioP1;P1;durP2;ratioP2;P2;SDS_P1;SDS_P2;PMS_P1;PMS_P2;Temp;Humidity;BMP_temperature;BMP_pressure;BME280_temperature;BME280_humidity;BME280_pressure;Samples;Min_cycle;Max_cycle;Signal;HPM_P1;HPM_P2
2023/12/21 00:03:19;;;;;;;1.95;1.40;;;;;;;7.35;100.00;99626.72;10355492;28;20053;-63
2023/12/21 00:08:21;;;;;;;1.40;1.02;;;;;;;7.28;100.00;99607.00;10353326;28;20068;-63
2023/12/21 00:13:26;;;;;;;2.77;1.07;;;;;;;7.27;100.00;99600.03;10346760;28;20076;-63
2023/12/21 00:18:28;;;;;;;2.03;1.20;;;;;;;7.21;100.00;99595.19;10345474;28;20061;-64
2023/12/21 00:23:29;;;;;;;1.38;1.02;;;;;;;7.21;100.00;99584.63;10353387;28;20054;-63
2023/12/21 00:28:31;;;;;;;1.10;1.00;;;;;;;7.26;100.00;99577.97;10347381;28;20045;-63
2023/12/21 00:33:32;;;;;;;1.85;1.00;;;;;;;7.26;100.00;99567.38;10345031;28;20060;-62
2023/12/21 00:38:34;;;;;;;2.35;1.23;;;;;;;7.29;100.00;99547.78;10341777;28;20567;-63
2023/12/21 00:43:35;;;;;;;2.95;1.02;;;;;;;7.21;100.00;99537.78;10345816;28;20124;-63
2023/12/21 00:48:37;;;;;;;1.40;0.80;;;;;;;7.21;100.00;99523.72;10349889;28;20057;-62
2023/12/21 00:53:40;;;;;;;0.75;0.63;;;;;;;7.19;100.00;99515.91;10351762;28;20124;-63
2023/12/21 00:58:41;;;;;;;1.90;1.00;;;;;;;7.15;100.00;99516.28;10344203;28;20056;-64
2023/12/21 01:03:42;;;;;;;1.48;1.05;;;;;;;7.19;100.00;99512.41;10346952;28;20144;-63
2023/12/21 01:08:44;;;;;;;1.65;0.57;;;;;;;7.13;100.00;99495.22;10344631;28;20061;-63
2023/12/21 01:13:45;;;;;;;1.20;0.52;;;;;;;7.18;100.00;99478.97;10342350;28;20614;-63
2023/12/21 01:18:47;;;;;;;1.65;0.68;;;;;;;7.23;100.00;99490.03;10342978;28;20049;-63
2023/12/21 01:23:48;;;;;;;1.48;0.43;;;;;;;7.21;100.00;99481.38;10356470;28;20092;-63
2023/12/21 01:28:52;;;;;;;1.70;0.40;;;;;;;7.25;100.00;99488.94;10335731;28;20735;-63
2023/12/21 01:33:54;;;;;;;0.63;0.40;;;;;;;7.30;100.00;99480.66;10337737;28;20076;-63
2023/12/21 01:38:56;;;;;;;1.50;0.28;;;;;;;7.26;100.00;99472.09;10346761;28;20061;-63
2023/12/21 01:43:58;;;;;;;0.77;0.20;;;;;;;7.28;100.00;99479.06;10339297;28;20480;-63
2023/12/21 01:49:00;;;;;;;0.40;0.17;;;;;;;7.29;100.00;99472.81;10344436;28;20104;-64
2023/12/21 01:54:03;;;;;;;1.10;0.30;;;;;;;7.27;100.00;99462.34;10342845;28;20053;-62
2023/12/21 01:59:04;;;;;;;1.25;0.20;;;;;;;7.31;100.00;99452.34;10340272;28;20038;-62
2023/12/21 02:04:06;;;;;;;0.28;0.10;;;;;;;7.26;100.00;99435.03;10346678;28;20158;-63
2023/12/21 02:09:07;;;;;;;0.50;0.30;;;;;;;7.39;100.00;99449.94;10328872;28;20073;-64
2023/12/21 02:14:10;;;;;;;0.30;0.15;;;;;;;7.34;100.00;99426.50;10343440;28;20053;-63
2023/12/21 02:19:13;;;;;;;0.47;0.10;;;;;;;7.38;100.00;99414.66;10337411;28;20049;-64
2023/12/21 02:24:16;;;;;;;0.30;0.10;;;;;;;7.35;100.00;99383.16;10339089;28;20041;-63
2023/12/21 02:29:18;;;;;;;0.15;0.00;;;;;;;7.40;100.00;99373.03;10344231;28;20064;-62
2023/12/21 02:34:20;;;;;;;0.38;0.10;;;;;;;7.44;100.00;99369.16;10342115;28;20053;-64
2023/12/21 02:39:21;;;;;;;0.15;0.10;;;;;;;7.36;100.00;99350.41;10342860;28;20064;-62
2023/12/21 02:44:23;;;;;;;0.30;0.10;;;;;;;7.49;100.00;99370.59;10338502;28;20696;-64
2023/12/21 02:49:24;;;;;;;0.17;0.10;;;;;;;7.54;100.00;99357.84;10342522;28;20199;-63
2023/12/21 02:54:26;;;;;;;0.10;0.00;;;;;;;7.54;100.00;99379.03;10340189;28;20126;-64
2023/12/21 02:59:27;;;;;;;0.10;0.00;;;;;;;7.61;100.00;99328.06;10348757;28;20150;-63
2023/12/21 03:04:29;;;;;;;0.38;0.05;;;;;;;7.59;100.00;99347.69;10339704;28;20140;-63
2023/12/21 03:09:35;;;;;;;0.38;0.00;;;;;;;7.62;100.00;99334.19;10343680;28;20072;-63
2023/12/21 03:14:36;;;;;;;0.38;0.10;;;;;;;7.66;100.00;99338.28;10344552;28;20050;-64
2023/12/21 03:19:40;;;;;;;0.17;0.00;;;;;;;7.65;100.00;99315.41;10337643;28;20065;-62
2023/12/21 03:24:42;;;;;;;0.68;0.00;;;;;;;7.64;100.00;99297.84;10354977;28;20053;-62
2023/12/21 03:29:44;;;;;;;0.10;0.00;;;;;;;7.59;100.00;99277.00;10344472;28;20077;-62
2023/12/21 03:34:45;;;;;;;0.13;0.00;;;;;;;7.61;100.00;99268.94;10348055;28;20049;-65
2023/12/21 03:39:47;;;;;;;2.25;0.10;;;;;;;7.61;100.00;99259.19;10343809;28;20053;-64
2023/12/21 03:44:48;;;;;;;0.85;0.10;;;;;;;7.67;100.00;99257.84;10359266;28;20721;-63
2023/12/21 03:49:52;;;;;;;0.55;0.10;;;;;;;7.70;100.00;99246.13;10351891;28;20048;-64
2023/12/21 03:54:54;;;;;;;0.00;0.00;;;;;;;7.76;100.00;99235.88;10351589;28;20541;-63
2023/12/21 03:59:55;;;;;;;0.30;0.00;;;;;;;7.81;100.00;99218.72;10371857;28;20052;-62
2023/12/21 04:04:57;;;;;;;0.20;0.00;;;;;;;7.82;100.00;99217.75;10349729;28;20045;-62
2023/12/21 04:10:00;;;;;;;0.35;0.00;;;;;;;7.88;100.00;99222.53;10343896;28;20130;-64
2023/12/21 04:15:02;;;;;;;0.13;0.00;;;;;;;7.92;100.00;99218.66;10345656;28;20053;-64
2023/12/21 04:20:05;;;;;;;0.13;0.00;;;;;;;7.97;100.00;99205.84;10352976;28;20139;-64
2023/12/21 04:25:08;;;;;;;0.10;0.00;;;;;;;8.05;100.00;99187.47;10342033;28;20119;-63
2023/12/21 04:30:10;;;;;;;0.22;0.00;;;;;;;8.09;100.00;99167.69;10346008;28;20096;-62
2023/12/21 04:35:12;;;;;;;0.20;0.10;;;;;;;8.12;100.00;99163.91;10345866;28;20083;-62
2023/12/21 04:40:13;;;;;;;0.10;0.00;;;;;;;8.15;100.00;99166.28;10352296;28;20615;-63
2023/12/21 04:45:15;;;;;;;0.10;0.00;;;;;;;8.12;100.00;99145.34;10346530;28;20049;-62
2023/12/21 04:50:18;;;;;;;0.20;0.08;;;;;;;8.10;100.00;99128.75;10342844;28;20103;-63
2023/12/21 04:55:20;;;;;;;0.20;0.10;;;;;;;8.14;100.00;99115.09;10342918;28;20058;-63
2023/12/21 05:00:22;;;;;;;0.10;0.00;;;;;;;8.16;100.00;99114.13;10344593;28;20133;-63
2023/12/21 05:05:25;;;;;;;0.20;0.00;;;;;;;8.10;100.00;99120.81;10345486;28;20108;-63
2023/12/21 05:10:27;;;;;;;0.08;0.00;;;;;;;8.07;100.00;99111.31;10347111;28;20578;-63
2023/12/21 05:15:28;;;;;;;0.08;0.00;;;;;;;8.10;100.00;99102.25;10341458;28;20579;-62
2023/12/21 05:20:30;;;;;;;0.15;0.00;;;;;;;8.15;100.00;99102.69;10346903;28;20165;-62
2023/12/21 05:25:31;;;;;;;0.20;0.00;;;;;;;8.17;100.00;99094.59;10345622;28;20062;-64
2023/12/21 05:30:35;;;;;;;0.13;0.00;;;;;;;8.13;100.00;99076.31;10349125;28;20049;-63
2023/12/21 05:35:36;;;;;;;0.00;0.00;;;;;;;8.13;100.00;99052.44;10343113;28;20046;-63
2023/12/21 05:40:38;;;;;;;0.20;0.00;;;;;;;8.17;100.00;99053.03;10350814;28;20050;-63
2023/12/21 05:45:39;;;;;;;0.20;0.05;;;;;;;8.19;100.00;99035.16;10349821;28;20057;-63
2023/12/21 05:50:41;;;;;;;0.25;0.00;;;;;;;8.24;100.00;99029.44;10336765;28;20747;-63
2023/12/21 05:55:42;;;;;;;0.10;0.00;;;;;;;8.29;100.00;99024.59;10339735;28;20132;-63
2023/12/21 06:00:44;;;;;;;0.22;0.08;;;;;;;8.30;100.00;99015.63;10344874;28;20057;-63
2023/12/21 06:05:45;;;;;;;0.20;0.00;;;;;;;8.34;100.00;99001.13;10338204;28;20062;-63
2023/12/21 06:10:47;;;;;;;0.30;0.00;;;;;;;8.25;100.00;99004.63;10334583;28;20538;-64
2023/12/21 06:15:48;;;;;;;0.30;0.30;;;;;;;8.26;100.00;98983.28;10337212;28;20060;-65
2023/12/21 06:20:51;;;;;;;0.30;0.00;;;;;;;8.25;100.00;98964.84;10343325;28;20057;-63
2023/12/21 06:25:52;;;;;;;0.20;0.00;;;;;;;8.33;100.00;98975.56;10335999;28;20053;-63
2023/12/21 06:30:54;;;;;;;0.10;0.00;;;;;;;8.33;100.00;98959.66;10348915;28;20135;-64
2023/12/21 06:35:55;;;;;;;0.10;0.00;;;;;;;8.38;100.00;98959.28;10344440;28;20057;-63
2023/12/21 06:40:57;;;;;;;0.20;0.00;;;;;;;8.34;100.00;98948.09;10342496;28;20146;-63
2023/12/21 06:45:58;;;;;;;1.23;0.10;;;;;;;8.37;100.00;98936.38;10346866;28;20090;-62
2023/12/21 06:51:00;;;;;;;0.15;0.00;;;;;;;8.28;100.00;98916.84;10344365;28;20065;-64
2023/12/21 06:56:02;;;;;;;1.05;0.10;;;;;;;8.35;100.00;98907.34;10343089;28;20053;-64
2023/12/21 07:01:27;;;;;;;0.17;0.00;;;;;;;8.46;100.00;98922.28;10340499;28;20211;-62
2023/12/21 07:06:29;;;;;;;0.60;0.10;;;;;;;8.36;100.00;98930.25;10338985;28;20084;-64
2023/12/21 07:11:30;;;;;;;0.43;0.10;;;;;;;8.41;100.00;98933.31;10339733;28;20064;-63
2023/12/21 07:16:32;;;;;;;1.15;0.00;;;;;;;8.42;100.00;98942.94;10311038;28;20050;-64
2023/12/21 07:21:36;;;;;;;1.35;0.10;;;;;;;8.48;100.00;98930.94;10343550;28;20109;-63
2023/12/21 07:26:38;;;;;;;0.60;0.10;;;;;;;8.44;100.00;98922.44;10335191;28;20589;-65
2023/12/21 07:31:40;;;;;;;0.35;0.00;;;;;;;8.42;100.00;98902.31;10343423;28;20064;-63
2023/12/21 07:36:42;;;;;;;0.32;0.10;;;;;;;8.42;100.00;98908.47;10327304;28;20782;-63
2023/12/21 07:41:45;;;;;;;0.88;0.10;;;;;;;8.43;100.00;98894.22;10343118;28;20049;-63
2023/12/21 07:46:46;;;;;;;0.10;0.00;;;;;;;8.47;100.00;98892.16;10337803;28;20067;-65
2023/12/21 07:51:51;;;;;;;0.40;0.10;;;;;;;8.53;100.00;98888.06;10342685;28;20096;-65
2023/12/21 07:57:04;;;;;;;0.20;0.08;;;;;;;8.47;100.00;98871.75;10342894;28;20064;-66
2023/12/21 08:02:07;;;;;;;0.20;0.00;;;;;;;8.48;100.00;98859.34;10335133;28;20053;-65
2023/12/21 08:07:11;;;;;;;0.15;0.00;;;;;;;8.54;100.00;98858.78;10336389;28;20049;-65
2023/12/21 08:12:20;;;;;;;0.10;0.00;;;;;;;8.60;100.00;98860.84;10311590;28;20555;-66
2023/12/21 08:17:23;;;;;;;0.20;0.00;;;;;;;8.57;100.00;98852.31;10348096;28;20227;-64
2023/12/21 08:22:24;;;;;;;0.55;0.00;;;;;;;8.52;100.00;98838.69;10355837;28;20061;-65
2023/12/21 08:27:26;;;;;;;0.20;0.00;;;;;;;8.43;100.00;98825.25;10363568;28;20055;-66
2023/12/21 08:32:27;;;;;;;0.28;0.00;;;;;;;8.48;100.00;98827.50;10370282;28;20046;-64
2023/12/21 08:37:29;;;;;;;0.10;0.00;;;;;;;8.46;100.00;98802.97;10347411;28;20054;-63
2023/12/21 08:42:31;;;;;;;0.52;0.10;;;;;;;8.34;100.00;98786.38;10296507;28;20073;-65
2023/12/21 08:47:40;;;;;;;0.60;0.40;;;;;;;8.31;100.00;98795.44;10347179;28;20053;-63
2023/12/21 08:52:42;;;;;;;0.47;0.20;;;;;;;8.26;100.00;98799.53;10342597;28;20069;-64
2023/12/21 08:57:44;;;;;;;0.73;0.17;;;;;;;8.29;100.00;98783.31;10342181;28;20056;-65
2023/12/21 09:02:45;;;;;;;0.55;0.20;;;;;;;8.29;100.00;98760.28;10340310;28;20651;-64
2023/12/21 09:07:47;;;;;;;0.65;0.10;;;;;;;8.18;100.00;98725.16;10341307;28;20116;-63
2023/12/21 09:12:48;;;;;;;0.65;0.10;;;;;;;8.22;100.00;98700.88;10338266;28;20107;-65
2023/12/21 09:17:50;;;;;;;0.20;0.00;;;;;;;8.22;100.00;98697.41;10340237;28;20503;-64
2023/12/21 09:22:51;;;;;;;1.00;0.22;;;;;;;8.27;100.00;98692.47;10312319;28;25318;-68
2023/12/21 09:27:53;;;;;;;0.68;0.52;;;;;;;8.22;100.00;98636.44;10334000;28;20412;-64
2023/12/21 09:33:00;;;;;;;2.87;0.27;;;;;;;8.30;100.00;98628.56;10341149;28;20063;-65
2023/12/21 09:38:03;;;;;;;0.98;0.13;;;;;;;8.34;100.00;98635.25;10343526;28;20056;-63
2023/12/21 09:43:13;;;;;;;1.42;0.20;;;;;;;8.29;100.00;98589.78;10341686;28;20413;-66
2023/12/21 09:48:18;;;;;;;0.10;0.00;;;;;;;8.44;100.00;98593.63;10342088;28;20058;-65
2023/12/21 09:53:23;;;;;;;1.88;0.40;;;;;;;8.50;100.00;98586.88;10342795;28;20050;-65
2023/12/21 09:58:25;;;;;;;0.40;0.20;;;;;;;8.61;100.00;98591.13;10344021;28;20053;-65
2023/12/21 10:03:29;;;;;;;0.77;0.20;;;;;;;8.69;100.00;98608.94;10344759;28;20061;-64
2023/12/21 10:08:33;;;;;;;1.38;0.10;;;;;;;8.76;100.00;98586.94;10333463;28;20065;-66
2023/12/21 10:13:35;;;;;;;0.93;0.10;;;;;;;8.61;100.00;98516.88;10334457;28;20663;-64
2023/12/21 10:18:36;;;;;;;0.30;0.00;;;;;;;8.84;100.00;98565.81;10353719;28;20096;-66
2023/12/21 10:23:39;;;;;;;0.22;0.00;;;;;;;8.74;100.00;98545.66;10357557;28;20195;-66
2023/12/21 10:28:42;;;;;;;0.68;0.10;;;;;;;8.89;100.00;98537.94;10350196;28;20499;-66
2023/12/21 10:33:44;;;;;;;0.20;0.10;;;;;;;8.88;100.00;98536.31;10338505;28;20045;-66
2023/12/21 10:38:46;;;;;;;0.43;0.10;;;;;;;8.85;100.00;98513.56;10351183;28;20056;-66
2023/12/21 10:43:51;;;;;;;0.75;0.10;;;;;;;8.90;100.00;98503.31;10350792;28;20053;-64
2023/12/21 10:48:53;;;;;;;0.38;0.10;;;;;;;8.97;100.00;98477.00;10345121;28;20434;-65
2023/12/21 10:53:57;;;;;;;0.50;0.20;;;;;;;9.00;100.00;98476.69;10341675;28;20061;-65
2023/12/21 10:59:01;;;;;;;0.57;0.03;;;;;;;8.96;100.00;98468.22;10316921;28;20057;-66
2023/12/21 11:04:04;;;;;;;0.38;0.15;;;;;;;9.00;100.00;98453.59;10345777;28;20129;-65
2023/12/21 11:09:09;;;;;;;1.77;0.10;;;;;;;9.07;100.00;98442.34;10337108;28;20129;-66
2023/12/21 11:14:11;;;;;;;1.83;0.30;;;;;;;9.11;100.00;98441.06;10337130;28;20053;-67
2023/12/21 11:19:17;;;;;;;1.33;0.20;;;;;;;8.99;100.00;98396.25;10338333;28;20982;-64
2023/12/21 11:24:21;;;;;;;0.77;0.38;;;;;;;9.16;100.00;98412.22;10342221;28;20049;-64
2023/12/21 11:29:27;;;;;;;0.70;0.30;;;;;;;9.18;100.00;98397.78;10345482;28;20054;-66
2023/12/21 11:34:38;;;;;;;0.52;0.20;;;;;;;9.18;100.00;98373.06;10341100;28;20426;-65
2023/12/21 11:39:40;;;;;;;1.85;0.30;;;;;;;9.23;100.00;98391.19;10352390;28;20050;-65
2023/12/21 11:44:47;;;;;;;0.28;0.10;;;;;;;9.17;100.00;98355.47;10354730;28;20053;-66
2023/12/21 11:49:51;;;;;;;1.48;0.20;;;;;;;9.25;100.00;98352.00;10355509;28;20057;-66
2023/12/21 11:54:54;;;;;;;1.73;0.22;;;;;;;9.27;100.00;98363.31;10350605;28;20054;-66
2023/12/21 12:00:12;;;;;;;1.90;0.30;;;;;;;9.30;100.00;98361.16;10347266;28;20129;-65
2023/12/21 12:05:23;;;;;;;0.50;0.10;;;;;;;9.27;100.00;98360.66;10354062;28;20513;-67
2023/12/21 12:10:25;;;;;;;0.95;0.10;;;;;;;9.29;100.00;98342.75;10351455;28;20054;-66
2023/12/21 12:15:27;;;;;;;0.50;0.10;;;;;;;9.35;100.00;98315.53;10349414;28;20131;-66
2023/12/21 12:20:29;;;;;;;1.58;0.20;;;;;;;9.27;100.00;98313.69;10357738;28;20054;-66
2023/12/21 12:25:31;;;;;;;1.48;0.52;;;;;;;9.30;100.00;98286.00;10350516;28;20112;-67
2023/12/21 12:30:38;;;;;;;0.70;0.10;;;;;;;9.30;100.00;98273.53;10350007;28;20060;-66
2023/12/21 12:35:48;;;;;;;0.75;0.20;;;;;;;9.34;100.00;98285.50;10329275;28;20069;-64
2023/12/21 12:40:50;;;;;;;0.30;0.10;;;;;;;9.36;100.00;98264.09;10307529;28;20057;-67
2023/12/21 12:45:52;;;;;;;0.20;0.05;;;;;;;9.37;100.00;98239.22;10325561;28;20056;-66
2023/12/21 12:50:55;;;;;;;0.40;0.10;;;;;;;9.37;100.00;98247.19;10340168;28;20408;-66
2023/12/21 12:55:57;;;;;;;0.98;0.10;;;;;;;9.38;100.00;98241.72;10342098;28;20068;-67
2023/12/21 13:00:59;;;;;;;0.15;0.10;;;;;;;9.32;100.00;98181.31;10341286;28;20730;-67
2023/12/21 13:06:01;;;;;;;1.50;0.20;;;;;;;9.40;100.00;98180.47;10336474;28;20054;-65
2023/12/21 13:11:15;;;;;;;0.60;0.10;;;;;;;9.53;100.00;98183.44;10344550;28;20057;-66
2023/12/21 13:16:18;;;;;;;0.47;0.10;;;;;;;9.51;100.00;98196.03;10335157;28;20100;-66
2023/12/21 13:21:20;;;;;;;0.25;0.10;;;;;;;9.52;100.00;98191.59;10343434;28;20808;-68
2023/12/21 13:26:21;;;;;;;0.40;0.10;;;;;;;9.60;100.00;98212.00;10348414;28;20053;-66
2023/12/21 13:31:24;;;;;;;0.35;0.10;;;;;;;9.59;100.00;98199.69;10329874;28;20054;-67
2023/12/21 13:36:26;;;;;;;0.15;0.05;;;;;;;9.58;100.00;98198.03;10336825;28;20088;-68
2023/12/21 13:41:29;;;;;;;0.30;0.08;;;;;;;9.69;100.00;98195.03;10345356;28;20193;-66
2023/12/21 13:46:31;;;;;;;0.80;0.10;;;;;;;9.71;100.00;98190.38;10346438;28;20051;-66
2023/12/21 13:51:33;;;;;;;0.55;0.10;;;;;;;9.65;100.00;98153.88;10345084;28;20356;-65
2023/12/21 13:56:35;;;;;;;0.65;0.25;;;;;;;9.74;100.00;98166.13;10348546;28;20060;-66
2023/12/21 14:01:36;;;;;;;0.30;0.05;;;;;;;9.75;100.00;98149.19;10343382;28;20049;-65
2023/12/21 14:06:38;;;;;;;0.30;0.10;;;;;;;9.74;100.00;98131.59;10341515;28;20053;-67
2023/12/21 14:11:42;;;;;;;1.43;0.27;;;;;;;9.75;100.00;98141.22;10333390;28;20060;-65
2023/12/21 14:16:43;;;;;;;1.88;0.70;;;;;;;9.77;100.00;98120.63;10342984;28;20115;-66
2023/12/21 14:21:45;;;;;;;0.30;0.17;;;;;;;9.68;100.00;98108.38;10336079;28;20093;-67
2023/12/21 14:26:49;;;;;;;0.47;0.28;;;;;;;9.82;100.00;98110.31;10339591;28;20054;-66
2023/12/21 14:31:50;;;;;;;0.47;0.17;;;;;;;9.89;100.00;98132.56;10339476;28;20703;-67
2023/12/21 14:36:52;;;;;;;0.65;0.38;;;;;;;9.88;100.00;98112.28;10357448;28;20046;-66
2023/12/21 14:41:53;;;;;;;0.68;0.20;;;;;;;9.91;100.00;98121.75;10334101;28;20938;-65
2023/12/21 14:46:55;;;;;;;1.02;0.15;;;;;;;9.95;100.00;98124.91;10350532;28;20059;-66
2023/12/21 14:51:58;;;;;;;0.50;0.10;;;;;;;9.98;100.00;98130.69;10339595;28;20058;-68
2023/12/21 14:57:01;;;;;;;0.68;0.13;;;;;;;10.04;100.00;98126.50;10350990;28;20532;-67
2023/12/21 15:02:02;;;;;;;0.75;0.10;;;;;;;10.11;100.00;98113.38;10347645;28;20050;-70
2023/12/21 15:07:04;;;;;;;0.77;0.20;;;;;;;10.11;100.00;98103.56;10351742;28;20973;-67
2023/12/21 15:12:06;;;;;;;0.52;0.30;;;;;;;10.11;100.00;98082.31;10350538;28;20061;-67
2023/12/21 15:17:10;;;;;;;0.77;0.10;;;;;;;10.12;100.00;98083.97;10350249;28;20053;-67
2023/12/21 15:22:12;;;;;;;1.20;0.20;;;;;;;10.14;100.00;98097.91;10367066;28;20046;-68
2023/12/21 15:27:13;;;;;;;0.70;0.10;;;;;;;10.16;100.00;98114.50;10348299;28;20431;-67
2023/12/21 15:32:14;;;;;;;1.45;0.20;;;;;;;10.17;100.00;98102.06;10351255;28;20049;-66
2023/12/21 15:37:16;;;;;;;1.90;1.13;;;;;;;10.15;100.00;98083.63;10342601;28;20058;-68
2023/12/21 15:42:18;;;;;;;0.80;0.28;;;;;;;10.19;100.00;98110.66;10356635;28;20056;-66
2023/12/21 15:47:19;;;;;;;0.90;0.35;;;;;;;10.20;100.00;98101.69;10344478;28;20125;-66
2023/12/21 15:52:21;;;;;;;1.50;0.30;;;;;;;10.16;100.00;98084.44;10345715;28;20951;-65
2023/12/21 15:57:23;;;;;;;1.15;0.30;;;;;;;10.25;100.00;98092.22;10349019;28;20127;-65
2023/12/21 16:02:25;;;;;;;0.90;0.40;;;;;;;10.33;100.00;98101.13;10352969;28;20049;-64
2023/12/21 16:07:27;;;;;;;0.80;0.43;;;;;;;10.30;100.00;98093.50;10345546;28;20084;-65
2023/12/21 16:12:28;;;;;;;0.60;0.20;;;;;;;10.34;100.00;98105.47;10354502;28;20532;-65
2023/12/21 16:17:30;;;;;;;1.90;0.22;;;;;;;10.35;100.00;98101.81;10345405;28;20120;-65
2023/12/21 16:22:32;;;;;;;1.15;0.20;;;;;;;10.44;100.00;98103.44;10340979;28;20050;-67
2023/12/21 16:27:33;;;;;;;0.95;0.20;;;;;;;10.48;97.52;98102.09;10345234;28;20048;-66
2023/12/21 16:32:37;;;;;;;1.30;0.45;;;;;;;10.52;93.23;98119.31;10337985;28;20141;-67
2023/12/21 16:37:41;;;;;;;2.92;0.22;;;;;;;10.60;90.21;98127.28;10337862;28;20210;-67
2023/12/21 16:42:42;;;;;;;0.75;0.20;;;;;;;10.53;89.67;98134.28;10347043;28;20425;-65
2023/12/21 16:47:44;;;;;;;1.98;0.30;;;;;;;10.61;91.36;98130.75;10360295;28;20852;-65
2023/12/21 16:52:46;;;;;;;2.47;0.20;;;;;;;10.58;92.03;98123.97;10343731;28;20183;-62
2023/12/21 16:57:50;;;;;;;0.35;0.17;;;;;;;10.54;88.33;98120.00;10316175;28;20566;-66
2023/12/21 17:02:51;;;;;;;2.33;0.40;;;;;;;10.51;86.98;98125.66;10349223;28;20178;-65
2023/12/21 17:07:53;;;;;;;2.25;0.20;;;;;;;10.47;88.03;98118.22;10338284;28;20061;-66
2023/12/21 17:12:56;;;;;;;2.75;0.47;;;;;;;10.38;88.43;98130.72;10336463;28;20878;-66
2023/12/21 17:17:58;;;;;;;0.40;0.10;;;;;;;10.35;89.22;98141.72;10354343;28;20079;-65
2023/12/21 17:23:01;;;;;;;1.88;0.55;;;;;;;10.27;91.33;98150.53;10331190;28;20054;-66
2023/12/21 17:28:08;;;;;;;1.48;0.55;;;;;;;10.13;88.00;98164.53;10331521;28;20061;-65
2023/12/21 17:33:10;;;;;;;;;;;;;;;10.15;86.74;98142.09;10338705;28;20080;-66
2023/12/21 17:38:11;;;;;;;1.73;0.25;;;;;;;10.11;87.10;98122.16;10338924;28;19922;-66
2023/12/21 17:43:13;;;;;;;2.88;0.43;;;;;;;10.08;84.93;98146.44;10336078;28;20595;-65
2023/12/21 17:48:15;;;;;;;2.75;0.40;;;;;;;10.08;82.53;98130.50;10333419;28;20046;-66
2023/12/21 17:53:16;;;;;;;2.70;0.93;;;;;;;10.05;82.00;98141.47;10337153;28;20381;-68
2023/12/21 17:58:20;;;;;;;4.22;0.70;;;;;;;10.09;82.63;98161.41;10343725;28;20069;-68
2023/12/21 18:03:22;;;;;;;6.50;0.60;;;;;;;10.03;81.93;98170.06;10339338;28;20514;-67
2023/12/21 18:08:24;;;;;;;5.18;0.88;;;;;;;9.94;81.26;98163.09;10335101;28;20058;-66
2023/12/21 18:13:25;;;;;;;2.50;0.68;;;;;;;10.00;79.93;98178.38;10338683;28;20731;-65
2023/12/21 18:18:27;;;;;;;4.70;1.77;;;;;;;10.06;82.96;98191.00;10337811;28;20077;-65
2023/12/21 18:23:29;;;;;;;2.10;0.60;;;;;;;10.04;80.68;98192.97;10331738;28;20124;-66
2023/12/21 18:28:31;;;;;;;2.28;0.73;;;;;;;10.13;82.46;98223.84;10335973;28;20073;-65
2023/12/21 18:33:32;;;;;;;3.83;0.60;;;;;;;10.08;84.46;98280.19;10337675;28;20058;-66
2023/12/21 18:38:35;;;;;;;2.80;0.75;;;;;;;9.56;92.98;98331.00;10336727;28;20214;-66
2023/12/21 18:43:36;;;;;;;2.40;0.55;;;;;;;9.12;96.46;98360.44;10340703;28;20057;-67
2023/12/21 18:48:38;;;;;;;2.40;0.45;;;;;;;8.77;99.62;98341.06;10335473;28;20049;-66
2023/12/21 18:53:39;;;;;;;1.90;0.30;;;;;;;8.51;99.74;98301.31;10337791;28;20046;-67
2023/12/21 18:58:41;;;;;;;1.15;0.32;;;;;;;8.12;98.63;98299.91;10336760;28;20045;-68
2023/12/21 19:03:43;;;;;;;0.88;0.30;;;;;;;8.28;97.64;98338.94;10344817;28;20054;-68
2023/12/21 19:08:45;;;;;;;5.95;2.55;;;;;;;8.24;100.00;98367.59;10336578;28;20072;-66
2023/12/21 19:13:48;;;;;;;1.88;0.40;;;;;;;8.12;100.00;98401.44;10335630;28;20131;-68
2023/12/21 19:18:50;;;;;;;0.40;0.10;;;;;;;7.94;100.00;98310.53;10318995;28;20064;-65
2023/12/21 19:23:51;;;;;;;1.58;0.40;;;;;;;7.93;98.19;98336.22;10340129;28;20719;-65
2023/12/21 19:28:55;;;;;;;1.23;0.60;;;;;;;7.91;99.80;98347.94;10334002;28;20128;-66
2023/12/21 19:33:56;;;;;;;1.70;0.32;;;;;;;7.85;100.00;98351.19;10335445;28;20058;-66
2023/12/21 19:38:59;;;;;;;1.20;0.32;;;;;;;7.89;100.00;98356.03;10338900;28;20100;-66
2023/12/21 19:44:02;;;;;;;1.02;0.38;;;;;;;7.84;100.00;98334.47;10327972;28;20083;-66
2023/12/21 19:49:03;;;;;;;1.20;0.43;;;;;;;8.07;100.00;98358.66;10332276;28;20050;-65
2023/12/21 19:54:05;;;;;;;1.30;0.52;;;;;;;8.24;100.00;98358.78;10340875;28;20080;-67
2023/12/21 19:59:06;;;;;;;2.75;0.68;;;;;;;8.31;100.00;98387.16;10335161;28;20092;-67
2023/12/21 20:04:09;;;;;;;4.00;1.95;;;;;;;8.05;100.00;98456.03;10342139;28;20091;-65
2023/12/21 20:09:13;;;;;;;2.85;0.70;;;;;;;7.97;100.00;98544.25;10336669;28;20057;-65
2023/12/21 20:14:15;;;;;;;6.93;2.27;;;;;;;7.60;100.00;98574.25;10343000;28;20057;-67
2023/12/21 20:19:16;;;;;;;3.83;0.70;;;;;;;7.42;97.46;98538.94;10342421;28;20057;-68
2023/12/21 20:24:18;;;;;;;2.70;0.90;;;;;;;7.34;98.22;98481.44;10342591;28;20054;-65
2023/12/21 20:29:19;;;;;;;1.50;0.45;;;;;;;7.43;90.89;98496.44;10325915;28;20109;-68
2023/12/21 20:34:21;;;;;;;2.33;0.50;;;;;;;7.37;94.63;98512.91;10328530;28;20525;-64
2023/12/21 20:39:22;;;;;;;1.45;0.40;;;;;;;7.30;88.73;98519.75;10343510;28;20638;-66
2023/12/21 20:44:24;;;;;;;1.20;0.45;;;;;;;7.64;89.58;98503.31;10337083;28;20054;-68
2023/12/21 20:49:25;;;;;;;3.10;0.77;;;;;;;7.62;82.97;98473.47;10338238;28;20050;-66
2023/12/21 20:54:31;;;;;;;4.32;0.55;;;;;;;7.42;79.88;98496.56;10344024;28;20049;-65
2023/12/21 20:59:36;;;;;;;2.22;0.47;;;;;;;7.20;81.47;98572.69;10339641;28;20046;-67
2023/12/21 21:04:38;;;;;;;3.03;0.50;;;;;;;6.96;79.43;98552.00;10341524;28;20168;-66
2023/12/21 21:09:40;;;;;;;5.63;0.73;;;;;;;6.88;82.11;98536.03;10328039;28;20573;-65
2023/12/21 21:14:42;;;;;;;4.00;1.35;;;;;;;6.89;84.24;98602.00;10338063;28;20057;-67
2023/12/21 21:19:43;;;;;;;4.80;0.90;;;;;;;6.75;86.22;98604.22;10339403;28;20057;-67
2023/12/21 21:24:46;;;;;;;3.00;0.50;;;;;;;6.96;87.42;98607.56;10340503;28;20054;-65
2023/12/21 21:29:47;;;;;;;5.32;0.95;;;;;;;6.83;88.73;98607.00;10342874;28;20057;-65
2023/12/21 21:34:49;;;;;;;3.50;0.55;;;;;;;6.87;90.78;98597.81;10338426;28;20049;-66
2023/12/21 21:39:51;;;;;;;4.43;1.08;;;;;;;6.77;90.10;98602.28;10321148;28;20495;-66
2023/12/21 21:44:54;;;;;;;1.85;0.60;;;;;;;6.57;89.36;98638.47;10335061;28;20053;-66
2023/12/21 21:49:56;;;;;;;2.42;0.40;;;;;;;6.42;90.41;98638.84;10327928;28;21154;-66
2023/12/21 21:54:57;;;;;;;2.70;0.80;;;;;;;6.54;90.25;98619.28;10338275;28;20464;-66
2023/12/21 21:59:59;;;;;;;4.65;1.10;;;;;;;6.91;92.08;98641.53;10339981;28;20088;-65
2023/12/21 22:05:02;;;;;;;3.38;0.88;;;;;;;7.03;88.88;98658.94;10336852;28;20053;-65
2023/12/21 22:10:05;;;;;;;3.35;0.60;;;;;;;7.01;89.56;98674.13;10335792;28;20057;-65
2023/12/21 22:15:07;;;;;;;3.97;0.75;;;;;;;7.07;90.02;98659.47;10338418;28;20089;-65
2023/12/21 22:20:09;;;;;;;4.03;1.10;;;;;;;6.90;89.62;98645.16;10323945;28;20184;-65
2023/12/21 22:25:11;;;;;;;4.20;0.70;;;;;;;7.00;91.39;98635.41;10340981;28;20423;-66
2023/12/21 22:30:13;;;;;;;4.20;0.73;;;;;;;6.93;90.66;98673.97;10339331;28;20150;-64
2023/12/21 22:35:15;;;;;;;2.45;0.70;;;;;;;7.10;89.54;98684.84;10330455;28;20097;-66
2023/12/21 22:40:18;;;;;;;1.77;0.30;;;;;;;6.96;88.45;98716.00;10335429;28;20188;-64
2023/12/21 22:45:20;;;;;;;2.38;0.28;;;;;;;6.68;88.55;98678.84;10332425;28;20053;-67
2023/12/21 22:50:21;;;;;;;1.88;0.40;;;;;;;6.69;88.89;98717.50;10355294;28;20056;-65
2023/12/21 22:55:26;;;;;;;1.00;0.20;;;;;;;6.70;89.67;98716.53;10341636;28;20426;-66
2023/12/21 23:00:28;;;;;;;2.63;0.40;;;;;;;6.76;90.98;98685.25;10337796;28;20507;-66
2023/12/21 23:05:29;;;;;;;1.42;0.20;;;;;;;6.74;89.39;98656.31;10342622;28;20046;-67
2023/12/21 23:10:35;;;;;;;0.75;0.20;;;;;;;6.64;90.53;98660.75;10342935;28;20053;-65
2023/12/21 23:15:37;;;;;;;3.25;0.40;;;;;;;6.78;90.43;98664.78;10337852;28;20054;-66
2023/12/21 23:20:39;;;;;;;1.60;0.20;;;;;;;6.86;89.36;98696.66;10341619;28;20053;-67
2023/12/21 23:25:40;;;;;;;2.28;0.30;;;;;;;6.84;89.45;98699.44;10341392;28;20057;-66
2023/12/21 23:30:44;;;;;;;1.73;0.30;;;;;;;6.84;89.99;98673.00;10336465;28;20057;-65